Time;durP1;ratioP1;P1;durP2;ratioP2;P2;SDS_P1;SDS_P2;PMS_P1;PMS_P2;Temp;Humidity;BMP_temperature;BMP_pressure;BME280_temperature;BME280_humidity;BME280_pressure;Samples;Min_cycle;Max_cycle;Signal;HPM_P1;HPM_P2
2024/01/07 00:02:20;;;;;;;39.10;21.30;;;;;;;;;;5029485;28;20381;-64
2024/01/07 00:04:46;;;;;;;41.50;21.23;;;;;;;;;;5029436;28;20136;-64
2024/01/07 00:07:12;;;;;;;39.73;21.67;;;;;;;;;;5028971;28;20364;-64
2024/01/07 00:09:38;;;;;;;38.47;20.17;;;;;;;;;;5029299;28;20042;-63
2024/01/07 00:12:04;;;;;;;42.23;21.37;;;;;;;;;;5027628;28;20062;-64
2024/01/07 00:14:30;;;;;;;35.13;19.90;;;;;;;;;;5029465;28;20629;-64
2024/01/07 00:16:56;;;;;;;36.77;19.67;;;;;;;;;;5027828;28;20713;-64
2024/01/07 00:19:22;;;;;;;39.13;20.17;;;;;;;;;;5029179;28;20306;-64
2024/01/07 00:21:49;;;;;;;35.63;20.53;;;;;;;;;;5029201;28;20284;-64
2024/01/07 00:24:15;;;;;;;37.20;20.40;;;;;;;;;;5029057;28;20288;-64
2024/01/07 00:26:41;;;;;;;34.60;20.17;;;;;;;;;;5028492;28;20280;-64
2024/01/07 00:29:07;;;;;;;42.80;20.27;;;;;;;;;;5029212;28;20488;-64
2024/01/07 00:31:33;;;;;;;40.90;20.73;;;;;;;;;;5028705;28;20050;-64
2024/01/07 00:33:59;;;;;;;36.57;20.13;;;;;;;;;;5028283;28;20064;-64
2024/01/07 00:36:25;;;;;;;44.30;20.60;;;;;;;;;;5028560;28;20371;-64
2024/01/07 00:38:51;;;;;;;37.00;19.50;;;;;;;;;;5028231;28;20374;-63
2024/01/07 00:41:17;;;;;;;31.93;19.00;;;;;;;;;;5029352;28;20342;-64
2024/01/07 00:43:43;;;;;;;33.67;18.47;;;;;;;;;;5028640;28;20049;-64
2024/01/07 00:46:09;;;;;;;42.77;20.10;;;;;;;;;;5027970;28;20408;-64
2024/01/07 00:48:35;;;;;;;36.17;18.13;;;;;;;;;;5027838;28;20120;-63
2024/01/07 00:51:01;;;;;;;41.70;20.63;;;;;;;;;;5028413;28;20071;-64
2024/01/07 00:53:27;;;;;;;35.43;21.60;;;;;;;;;;5029354;28;20778;-64
2024/01/07 00:55:53;;;;;;;33.60;18.50;;;;;;;;;;5027948;28;20490;-64
2024/01/07 00:58:19;;;;;;;40.50;22.27;;;;;;;;;;5027152;28;20042;-64
2024/01/07 01:00:45;;;;;;;33.37;20.07;;;;;;;;;;5028167;28;20091;-64
2024/01/07 01:03:11;;;;;;;37.93;22.33;;;;;;;;;;5028116;28;20038;-64
2024/01/07 01:05:37;;;;;;;39.83;21.63;;;;;;;;;;5028520;28;20049;-63
2024/01/07 01:08:03;;;;;;;39.77;20.57;;;;;;;;;;5027093;28;20294;-63
2024/01/07 01:10:29;;;;;;;34.73;19.37;;;;;;;;;;5027548;28;20049;-63
2024/01/07 01:12:55;;;;;;;35.93;19.30;;;;;;;;;;5028373;28;20280;-64
2024/01/07 01:15:21;;;;;;;32.27;17.23;;;;;;;;;;5027975;28;20296;-64
2024/01/07 01:17:47;;;;;;;40.43;22.13;;;;;;;;;;5028404;28;20049;-64
2024/01/07 01:20:13;;;;;;;38.13;22.47;;;;;;;;;;5026704;28;20812;-64
2024/01/07 01:22:39;;;;;;;30.27;15.73;;;;;;;;;;5028526;28;20096;-64
2024/01/07 01:25:06;;;;;;;27.17;15.77;;;;;;;;;;5027820;28;20284;-63
2024/01/07 01:27:32;;;;;;;35.90;18.43;;;;;;;;;;5028033;28;20701;-63
2024/01/07 01:29:58;;;;;;;30.53;19.80;;;;;;;;;;5026113;28;20299;-64
2024/01/07 01:32:23;;;;;;;30.20;15.73;;;;;;;;;;5027571;28;20049;-63
2024/01/07 01:34:49;;;;;;;24.37;15.27;;;;;;;;;;5028363;28;20454;-64
2024/01/07 01:37:15;;;;;;;26.30;16.00;;;;;;;;;;5027689;28;20055;-63
2024/01/07 01:39:42;;;;;;;29.17;16.17;;;;;;;;;;5028121;28;20052;-64
2024/01/07 01:42:08;;;;;;;28.30;16.10;;;;;;;;;;5028278;28;20096;-63
2024/01/07 01:44:34;;;;;;;30.70;17.07;;;;;;;;;;5027996;28;20295;-63
2024/01/07 01:47:01;;;;;;;29.57;17.60;;;;;;;;;;5027459;28;20363;-63
2024/01/07 01:49:31;;;;;;;31.43;18.40;;;;;;;;;;5026927;28;20320;-63
2024/01/07 01:51:58;;;;;;;29.47;15.40;;;;;;;;;;5027604;28;20736;-64
2024/01/07 01:54:24;;;;;;;30.40;15.90;;;;;;;;;;5027808;28;20363;-63
2024/01/07 01:56:50;;;;;;;27.33;16.17;;;;;;;;;;5027103;28;20296;-63
2024/01/07 01:59:16;;;;;;;27.00;15.67;;;;;;;;;;5028061;28;20299;-63
2024/01/07 02:01:42;;;;;;;31.47;16.70;;;;;;;;;;5028071;28;20338;-63
2024/01/07 02:04:09;;;;;;;29.93;17.17;;;;;;;;;;5028012;28;20288;-63
2024/01/07 02:06:36;;;;;;;31.73;17.27;;;;;;;;;;5028258;28;20328;-63
2024/01/07 02:09:02;;;;;;;32.53;17.67;;;;;;;;;;5028020;28;20292;-63
2024/01/07 02:11:28;;;;;;;29.53;17.00;;;;;;;;;;5028289;28;20325;-63
2024/01/07 02:13:54;;;;;;;31.87;16.93;;;;;;;;;;5027307;28;20665;-63
2024/01/07 02:16:20;;;;;;;29.00;16.53;;;;;;;;;;5028183;28;20045;-63
2024/01/07 02:18:46;;;;;;;28.77;17.23;;;;;;;;;;5027772;28;20045;-63
2024/01/07 02:21:16;;;;;;;29.10;16.80;;;;;;;;;;5027348;28;20285;-63
2024/01/07 02:23:42;;;;;;;26.73;16.30;;;;;;;;;;5028028;28;20403;-63
2024/01/07 02:26:08;;;;;;;29.17;16.60;;;;;;;;;;5027638;28;20976;-63
2024/01/07 02:28:34;;;;;;;25.83;16.17;;;;;;;;;;5027840;28;20458;-64
2024/01/07 02:31:00;;;;;;;31.10;17.43;;;;;;;;;;5027706;28;20805;-64
2024/01/07 02:33:26;;;;;;;27.13;16.07;;;;;;;;;;5027751;28;20326;-63
2024/01/07 02:35:52;;;;;;;25.27;15.17;;;;;;;;;;5028767;28;20284;-63
2024/01/07 02:38:18;;;;;;;32.17;17.27;;;;;;;;;;5031274;28;20701;-63
2024/01/07 02:40:44;;;;;;;33.40;17.23;;;;;;;;;;5031568;28;20053;-63
2024/01/07 02:43:10;;;;;;;31.13;16.90;;;;;;;;;;5030398;28;20482;-63
2024/01/07 02:45:36;;;;;;;26.77;16.37;;;;;;;;;;5030885;28;20049;-63
2024/01/07 02:48:02;;;;;;;31.87;16.70;;;;;;;;;;5030808;28;20292;-63
2024/01/07 02:50:28;;;;;;;28.50;16.23;;;;;;;;;;5031392;28;20322;-63
2024/01/07 02:52:54;;;;;;;24.13;14.43;;;;;;;;;;5030761;28;20280;-63
2024/01/07 02:55:20;;;;;;;27.50;15.87;;;;;;;;;;5031325;28;20041;-63
2024/01/07 02:57:47;;;;;;;26.87;15.53;;;;;;;;;;5031144;28;20272;-63
2024/01/07 03:00:13;;;;;;;29.43;16.33;;;;;;;;;;5029606;28;20692;-63
2024/01/07 03:02:39;;;;;;;23.77;15.10;;;;;;;;;;5031012;28;20288;-63
2024/01/07 03:05:07;;;;;;;22.87;14.20;;;;;;;;;;5031055;28;20638;-63
2024/01/07 03:07:33;;;;;;;27.90;15.73;;;;;;;;;;5029917;28;20077;-63
2024/01/07 03:09:59;;;;;;;26.70;15.90;;;;;;;;;;5030751;28;20426;-63
2024/01/07 03:12:25;;;;;;;25.57;14.90;;;;;;;;;;5031158;28;20657;-63
2024/01/07 03:14:51;;;;;;;27.27;14.63;;;;;;;;;;5031151;28;20702;-63
2024/01/07 03:17:17;;;;;;;29.17;15.10;;;;;;;;;;5030144;28;20296;-63
2024/01/07 03:19:43;;;;;;;25.50;15.57;;;;;;;;;;5030001;28;20049;-63
2024/01/07 03:22:09;;;;;;;23.33;14.87;;;;;;;;;;5030061;28;20288;-63
2024/01/07 03:24:35;;;;;;;24.10;14.23;;;;;;;;;;5030417;28;20802;-63
2024/01/07 03:27:01;;;;;;;24.43;14.57;;;;;;;;;;5030365;28;20284;-63
2024/01/07 03:29:27;;;;;;;22.87;14.07;;;;;;;;;;5030846;28;20045;-63
2024/01/07 03:31:53;;;;;;;21.60;13.17;;;;;;;;;;5030660;28;20058;-63
2024/01/07 03:34:20;;;;;;;20.50;12.50;;;;;;;;;;5030163;28;20121;-63
2024/01/07 03:36:46;;;;;;;26.57;14.83;;;;;;;;;;5030517;28;20292;-64
2024/01/07 03:39:12;;;;;;;25.73;13.70;;;;;;;;;;5030492;28;20375;-63
2024/01/07 03:41:38;;;;;;;22.60;14.23;;;;;;;;;;5030444;28;20551;-63
2024/01/07 03:44:04;;;;;;;25.03;14.80;;;;;;;;;;5030216;28;20312;-63
2024/01/07 03:46:30;;;;;;;23.17;14.07;;;;;;;;;;5029760;28;20080;-63
2024/01/07 03:48:56;;;;;;;25.43;14.63;;;;;;;;;;5029768;28;20375;-63
2024/01/07 03:51:22;;;;;;;21.97;13.37;;;;;;;;;;5030563;28;20406;-63
2024/01/07 03:53:48;;;;;;;25.17;13.60;;;;;;;;;;5030335;28;20111;-63
2024/01/07 03:56:14;;;;;;;22.03;12.77;;;;;;;;;;5029367;28;20045;-63
2024/01/07 03:58:40;;;;;;;23.47;13.43;;;;;;;;;;5029984;28;20037;-63
2024/01/07 04:01:07;;;;;;;22.00;14.43;;;;;;;;;;5029995;28;20041;-63
2024/01/07 04:03:33;;;;;;;22.80;13.67;;;;;;;;;;5029210;28;20052;-63
2024/01/07 04:05:59;;;;;;;23.00;13.00;;;;;;;;;;5029609;28;20280;-63
2024/01/07 04:08:25;;;;;;;23.17;13.93;;;;;;;;;;5029625;28;20104;-63
2024/01/07 04:10:51;;;;;;;21.43;12.50;;;;;;;;;;5029992;28;20081;-63
2024/01/07 04:13:17;;;;;;;22.13;12.30;;;;;;;;;;5029786;28;20510;-64
2024/01/07 04:15:43;;;;;;;17.57;12.10;;;;;;;;;;5029860;28;20049;-63
2024/01/07 04:18:09;;;;;;;20.70;12.17;;;;;;;;;;5029545;28;20500;-63
2024/01/07 04:20:35;;;;;;;21.20;12.37;;;;;;;;;;5029369;28;20084;-63
2024/01/07 04:23:00;;;;;;;22.03;12.40;;;;;;;;;;5029019;28;20073;-63
2024/01/07 04:25:26;;;;;;;19.70;12.27;;;;;;;;;;5029420;28;20128;-63
2024/01/07 04:27:52;;;;;;;29.00;16.97;;;;;;;;;;5029887;28;20390;-63
2024/01/07 04:30:18;;;;;;;68.77;31.67;;;;;;;;;;5029328;28;20284;-64
2024/01/07 04:32:45;;;;;;;25.33;14.47;;;;;;;;;;5028908;28;20745;-64
2024/01/07 04:35:11;;;;;;;71.73;39.93;;;;;;;;;;5029125;28;20794;-63
2024/01/07 04:37:38;;;;;;;29.90;20.60;;;;;;;;;;5028832;28;20311;-63
2024/01/07 04:40:05;;;;;;;19.60;12.37;;;;;;;;;;5029122;28;20281;-63
2024/01/07 04:42:31;;;;;;;20.67;15.33;;;;;;;;;;5029084;28;20660;-63
2024/01/07 04:44:57;;;;;;;21.13;13.07;;;;;;;;;;5028608;28;20284;-63
2024/01/07 04:47:26;;;;;;;21.27;13.97;;;;;;;;;;5029432;28;20047;-63
2024/01/07 04:49:53;;;;;;;23.07;12.30;;;;;;;;;;5029014;28;20760;-63
2024/01/07 04:52:19;;;;;;;19.93;13.13;;;;;;;;;;5028841;28;20308;-63
2024/01/07 04:54:45;;;;;;;17.97;11.27;;;;;;;;;;5029155;28;20286;-63
2024/01/07 04:57:11;;;;;;;17.33;12.23;;;;;;;;;;5028409;28;20041;-63
2024/01/07 04:59:37;;;;;;;18.23;10.63;;;;;;;;;;5027944;28;20331;-63
2024/01/07 05:02:03;;;;;;;18.40;12.50;;;;;;;;;;5028701;28;20050;-64
2024/01/07 05:04:29;;;;;;;20.67;12.60;;;;;;;;;;5028933;28;20284;-64
2024/01/07 05:06:55;;;;;;;18.60;11.97;;;;;;;;;;5028078;28;20354;-63
2024/01/07 05:09:21;;;;;;;19.93;12.17;;;;;;;;;;5028402;28;20136;-63
2024/01/07 05:11:47;;;;;;;16.90;10.90;;;;;;;;;;5027642;28;20057;-63
2024/01/07 05:14:13;;;;;;;23.87;12.13;;;;;;;;;;5028674;28;20487;-64
2024/01/07 05:16:39;;;;;;;19.43;11.73;;;;;;;;;;5028978;28;20125;-63
2024/01/07 05:19:05;;;;;;;24.50;11.90;;;;;;;;;;5028202;28;20857;-64
2024/01/07 05:21:31;;;;;;;19.13;11.47;;;;;;;;;;5028786;28;20092;-63
2024/01/07 05:23:57;;;;;;;19.67;11.17;;;;;;;;;;5027842;28;20323;-63
2024/01/07 05:26:23;;;;;;;16.17;9.27;;;;;;;;;;5028598;28;20054;-64
2024/01/07 05:28:49;;;;;;;19.20;11.07;;;;;;;;;;5028355;28;20334;-63
2024/01/07 05:31:16;;;;;;;13.60;8.50;;;;;;;;;;5028245;28;20361;-63
2024/01/07 05:33:42;;;;;;;13.50;7.67;;;;;;;;;;5027573;28;20782;-64
2024/01/07 05:36:08;;;;;;;14.43;8.03;;;;;;;;;;5028498;28;20338;-63
2024/01/07 05:38:34;;;;;;;14.67;8.67;;;;;;;;;;5028141;28;20280;-64
2024/01/07 05:41:00;;;;;;;10.17;7.23;;;;;;;;;;5027989;28;20283;-63
2024/01/07 05:43:26;;;;;;;11.23;7.00;;;;;;;;;;5027611;28;20081;-64
2024/01/07 05:45:53;;;;;;;13.03;7.77;;;;;;;;;;5027636;28;20136;-63
2024/01/07 05:48:21;;;;;;;13.87;7.90;;;;;;;;;;5027882;28;20049;-64
2024/01/07 05:50:48;;;;;;;12.87;7.03;;;;;;;;;;5028103;28;20812;-63
2024/01/07 05:53:14;;;;;;;11.57;6.77;;;;;;;;;;5027736;28;20623;-63
2024/01/07 05:55:41;;;;;;;10.70;6.73;;;;;;;;;;5027614;28;20411;-63
2024/01/07 05:58:07;;;;;;;10.80;6.90;;;;;;;;;;5028084;28;20351;-63
2024/01/07 06:00:33;;;;;;;14.17;8.57;;;;;;;;;;5027998;28;20778;-64
2024/01/07 06:02:59;;;;;;;10.70;7.20;;;;;;;;;;5028125;28;20049;-63
2024/01/07 06:05:26;;;;;;;11.10;6.40;;;;;;;;;;5027466;28;20280;-63
2024/01/07 06:07:52;;;;;;;14.07;9.27;;;;;;;;;;5028304;28;20383;-63
2024/01/07 06:10:18;;;;;;;13.37;7.67;;;;;;;;;;5028853;28;20829;-63
2024/01/07 06:12:44;;;;;;;13.37;8.37;;;;;;;;;;5032274;28;20058;-63
2024/01/07 06:15:10;;;;;;;13.97;10.03;;;;;;;;;;5031712;28;20049;-64
2024/01/07 06:17:36;;;;;;;9.43;6.17;;;;;;;;;;5032133;28;20049;-63
2024/01/07 06:20:02;;;;;;;9.83;5.47;;;;;;;;;;5030407;28;20061;-63
2024/01/07 06:22:28;;;;;;;9.87;5.87;;;;;;;;;;5032086;28;20279;-63
2024/01/07 06:24:54;;;;;;;8.00;4.83;;;;;;;;;;5032120;28;20655;-63
2024/01/07 06:27:20;;;;;;;9.70;4.77;;;;;;;;;;5032033;28;20049;-63
2024/01/07 06:29:46;;;;;;;9.47;5.00;;;;;;;;;;5031864;28;20440;-63
2024/01/07 06:32:13;;;;;;;7.17;4.80;;;;;;;;;;5032174;28;20045;-63
2024/01/07 06:34:39;;;;;;;10.93;5.03;;;;;;;;;;5032056;28;20057;-63
2024/01/07 06:37:07;;;;;;;11.83;5.27;;;;;;;;;;5032102;28;20287;-63
2024/01/07 06:39:34;;;;;;;7.93;4.70;;;;;;;;;;5031757;28;20054;-63
2024/01/07 06:42:00;;;;;;;7.80;4.53;;;;;;;;;;5031771;28;20287;-63
2024/01/07 06:44:26;;;;;;;11.00;5.07;;;;;;;;;;5032195;28;20778;-63
2024/01/07 06:46:52;;;;;;;11.27;5.57;;;;;;;;;;5047516;28;20084;-64
2024/01/07 06:49:18;;;;;;;8.50;4.10;;;;;;;;;;5030327;28;20525;-63
2024/01/07 06:51:44;;;;;;;7.47;4.97;;;;;;;;;;5031684;28;20308;-63
2024/01/07 06:54:10;;;;;;;12.07;4.03;;;;;;;;;;5031202;28;20060;-63
2024/01/07 06:56:36;;;;;;;6.90;3.67;;;;;;;;;;5030992;28;20374;-63
2024/01/07 06:59:02;;;;;;;8.87;4.60;;;;;;;;;;5031564;28;20045;-63
2024/01/07 07:01:28;;;;;;;8.30;4.20;;;;;;;;;;5031118;28;20049;-63
2024/01/07 07:03:54;;;;;;;5.77;3.37;;;;;;;;;;5031694;28;20698;-63
2024/01/07 07:06:20;;;;;;;6.70;3.93;;;;;;;;;;5031536;28;20068;-63
2024/01/07 07:08:46;;;;;;;6.80;4.00;;;;;;;;;;5031690;28;20472;-63
2024/01/07 07:11:12;;;;;;;5.53;3.50;;;;;;;;;;5031497;28;20512;-63
2024/01/07 07:13:38;;;;;;;6.30;3.47;;;;;;;;;;5031487;28;20324;-63
2024/01/07 07:16:04;;;;;;;9.00;3.57;;;;;;;;;;5032018;28;20180;-63
2024/01/07 07:18:30;;;;;;;7.93;3.80;;;;;;;;;;5031444;28;20045;-63
2024/01/07 07:20:56;;;;;;;6.97;3.70;;;;;;;;;;5030520;28;20303;-63
2024/01/07 07:23:22;;;;;;;6.87;3.00;;;;;;;;;;5031577;28;20140;-63
2024/01/07 07:25:48;;;;;;;8.73;3.17;;;;;;;;;;5030799;28;20447;-63
2024/01/07 07:28:14;;;;;;;6.07;2.93;;;;;;;;;;5029723;28;20100;-63
2024/01/07 07:30:40;;;;;;;5.17;3.13;;;;;;;;;;5031120;28;20284;-63
2024/01/07 07:33:06;;;;;;;5.67;3.17;;;;;;;;;;5031405;28;20088;-63
2024/01/07 07:35:32;;;;;;;5.60;2.93;;;;;;;;;;5032682;28;20308;-63
2024/01/07 07:37:58;;;;;;;6.33;2.93;;;;;;;;;;5032344;28;20049;-63
2024/01/07 07:40:24;;;;;;;5.57;3.20;;;;;;;;;;5051209;28;20103;-63
2024/01/07 07:42:51;;;;;;;4.53;2.60;;;;;;;;;;5051353;28;20044;-63
2024/01/07 07:45:17;;;;;;;5.60;2.67;;;;;;;;;;5032049;28;20060;-63
2024/01/07 07:47:45;;;;;;;7.83;3.70;;;;;;;;;;5030749;28;20280;-63
2024/01/07 07:50:11;;;;;;;6.03;2.87;;;;;;;;;;5029890;28;20118;-63
2024/01/07 07:52:37;;;;;;;5.00;3.70;;;;;;;;;;5029359;28;20304;-63
2024/01/07 07:55:03;;;;;;;5.60;2.90;;;;;;;;;;5030799;28;20276;-63
2024/01/07 07:57:29;;;;;;;4.73;2.80;;;;;;;;;;5030535;28;20052;-63
2024/01/07 07:59:55;;;;;;;6.07;3.00;;;;;;;;;;5030598;28;20787;-63
2024/01/07 08:02:21;;;;;;;4.40;2.50;;;;;;;;;;5030276;28;20038;-63
2024/01/07 08:04:48;;;;;;;6.60;3.80;;;;;;;;;;5030691;28;20346;-63
2024/01/07 08:07:14;;;;;;;7.73;3.53;;;;;;;;;;5030847;28;20893;-64
2024/01/07 08:09:40;;;;;;;5.40;3.40;;;;;;;;;;5029626;28;20296;-63
2024/01/07 08:12:06;;;;;;;4.43;2.90;;;;;;;;;;5029479;28;20058;-63
2024/01/07 08:14:32;;;;;;;4.17;2.60;;;;;;;;;;5030702;28;20106;-63
2024/01/07 08:16:58;;;;;;;9.80;4.60;;;;;;;;;;5030258;28;20284;-63
2024/01/07 08:19:24;;;;;;;5.73;3.00;;;;;;;;;;5029852;28;20789;-63
2024/01/07 08:21:50;;;;;;;4.63;2.30;;;;;;;;;;5029988;28;20283;-64
2024/01/07 08:24:16;;;;;;;5.83;2.50;;;;;;;;;;5029846;28;20307;-63
2024/01/07 08:26:42;;;;;;;4.50;2.50;;;;;;;;;;5029891;28;20798;-62
2024/01/07 08:29:08;;;;;;;6.17;2.57;;;;;;;;;;5030063;28;20052;-63
2024/01/07 08:31:34;;;;;;;5.23;2.90;;;;;;;;;;5029860;28;20312;-63
2024/01/07 08:34:00;;;;;;;5.73;2.30;;;;;;;;;;5027841;28;20292;-63
2024/01/07 08:36:26;;;;;;;3.70;2.07;;;;;;;;;;5029471;28;20041;-63
2024/01/07 08:38:52;;;;;;;7.27;2.80;;;;;;;;;;5029315;28;20281;-63
2024/01/07 08:41:18;;;;;;;5.70;2.07;;;;;;;;;;5027992;28;20049;-63
2024/01/07 08:43:45;;;;;;;7.17;2.33;;;;;;;;;;5028739;28;20099;-62
2024/01/07 08:46:13;;;;;;;4.73;2.33;;;;;;;;;;5027417;28;20308;-63
2024/01/07 08:48:39;;;;;;;4.23;1.90;;;;;;;;;;5028931;28;20353;-62
2024/01/07 08:51:05;;;;;;;5.73;2.60;;;;;;;;;;5028800;28;20311;-62
2024/01/07 08:53:31;;;;;;;5.20;2.43;;;;;;;;;;5028725;28;20136;-63
2024/01/07 08:55:57;;;;;;;5.10;2.00;;;;;;;;;;5044294;28;20415;-63
2024/01/07 08:58:23;;;;;;;8.03;3.43;;;;;;;;;;5029173;28;20355;-63
2024/01/07 09:00:49;;;;;;;3.93;2.30;;;;;;;;;;5028749;28;20045;-62
2024/01/07 09:03:16;;;;;;;8.67;3.17;;;;;;;;;;5028754;28;20291;-63
2024/01/07 09:05:42;;;;;;;5.67;2.47;;;;;;;;;;5028633;28;20373;-62
2024/01/07 09:08:08;;;;;;;4.93;2.23;;;;;;;;;;5028775;28;20334;-62
2024/01/07 09:10:34;;;;;;;6.87;2.10;;;;;;;;;;5029433;28;20291;-62
2024/01/07 09:13:00;;;;;;;6.23;1.77;;;;;;;;;;5029520;28;20272;-62
2024/01/07 09:15:26;;;;;;;4.10;1.90;;;;;;;;;;5029355;28;20095;-63
2024/01/07 09:17:52;;;;;;;4.93;1.83;;;;;;;;;;5027140;28;20311;-62
2024/01/07 09:20:18;;;;;;;3.80;1.97;;;;;;;;;;5029206;28;20280;-62
2024/01/07 09:22:45;;;;;;;6.00;2.90;;;;;;;;;;5029096;28;20045;-62
2024/01/07 09:25:11;;;;;;;4.63;2.10;;;;;;;;;;5028502;28;20363;-63
2024/01/07 09:27:37;;;;;;;20.33;4.37;;;;;;;;;;5030167;28;20049;-63
2024/01/07 09:30:03;;;;;;;4.07;2.10;;;;;;;;;;5037349;28;20291;-63
2024/01/07 09:32:29;;;;;;;8.73;3.80;;;;;;;;;;5034286;28;20709;-62
2024/01/07 09:34:55;;;;;;;3.53;1.83;;;;;;;;;;5042090;28;20339;-63
2024/01/07 09:37:21;;;;;;;5.03;2.13;;;;;;;;;;5038530;28;20895;-62
2024/01/07 09:39:47;;;;;;;4.10;1.87;;;;;;;;;;5034494;28;20396;-64
2024/01/07 09:42:14;;;;;;;6.30;2.40;;;;;;;;;;5034866;28;20323;-64
2024/01/07 09:44:44;;;;;;;8.03;3.57;;;;;;;;;;5035932;28;20379;-64
2024/01/07 09:47:14;;;;;;;6.93;4.03;;;;;;;;;;5033144;28;20658;-64
2024/01/07 09:49:40;;;;;;;10.07;6.13;;;;;;;;;;5034663;28;20319;-64
2024/01/07 09:52:08;;;;;;;20.00;9.07;;;;;;;;;;5035186;28;20713;-64
2024/01/07 09:54:34;;;;;;;13.50;6.77;;;;;;;;;;5038311;28;20452;-64
2024/01/07 09:57:03;;;;;;;40.77;22.90;;;;;;;;;;5035460;28;20275;-65
2024/01/07 09:59:30;;;;;;;39.97;21.47;;;;;;;;;;5032300;28;20358;-64
2024/01/07 10:01:56;;;;;;;53.07;28.07;;;;;;;;;;5033939;28;20291;-64
2024/01/07 10:04:23;;;;;;;81.50;42.30;;;;;;;;;;5040381;28;20303;-64
2024/01/07 10:06:49;;;;;;;60.80;31.60;;;;;;;;;;5035653;28;20329;-64
2024/01/07 10:09:16;;;;;;;76.13;39.53;;;;;;;;;;5039967;28;20341;-64
2024/01/07 10:11:42;;;;;;;55.83;26.60;;;;;;;;;;5034961;28;20071;-64
2024/01/07 10:14:08;;;;;;;28.07;16.07;;;;;;;;;;5035720;28;20769;-64
2024/01/07 10:16:34;;;;;;;39.33;23.50;;;;;;;;;;5033095;28;20057;-64
2024/01/07 10:19:00;;;;;;;43.37;24.20;;;;;;;;;;5036758;28;20099;-64
2024/01/07 10:21:26;;;;;;;40.77;28.57;;;;;;;;;;5035559;28;20275;-65
2024/01/07 10:24:08;;;;;;;24.10;20.73;;;;;;;;;;5031543;28;20369;-64
2024/01/07 10:26:34;;;;;;;26.33;19.23;;;;;;;;;;5035105;28;20045;-64
2024/01/07 10:29:00;;;;;;;14.80;7.30;;;;;;;;;;5036931;28;20861;-64
2024/01/07 10:31:26;;;;;;;3.07;1.47;;;;;;;;;;5036384;28;20056;-64
2024/01/07 10:33:53;;;;;;;2.40;1.40;;;;;;;;;;5036687;28;20056;-64
2024/01/07 10:36:21;;;;;;;4.47;1.60;;;;;;;;;;5033256;28;20287;-64
2024/01/07 10:38:47;;;;;;;6.33;1.67;;;;;;;;;;5032974;28;20300;-64
2024/01/07 10:41:15;;;;;;;6.10;1.57;;;;;;;;;;5035241;28;20305;-64
2024/01/07 10:43:42;;;;;;;2.70;1.40;;;;;;;;;;5031983;28;20168;-64
2024/01/07 10:46:09;;;;;;;4.47;1.93;;;;;;;;;;5032598;28;20292;-65
2024/01/07 10:48:38;;;;;;;3.13;1.50;;;;;;;;;;5036428;28;20303;-64
2024/01/07 10:51:05;;;;;;;4.83;1.43;;;;;;;;;;5036422;28;20311;-64
2024/01/07 10:53:34;;;;;;;3.20;1.60;;;;;;;;;;5036679;28;20041;-65
2024/01/07 10:56:01;;;;;;;4.57;1.30;;;;;;;;;;5035912;28;20717;-64
2024/01/07 10:58:27;;;;;;;5.33;1.93;;;;;;;;;;5040461;28;20052;-64
2024/01/07 11:00:54;;;;;;;3.00;1.87;;;;;;;;;;5036404;28;20307;-64
2024/01/07 11:03:39;;;;;;;3.20;1.43;;;;;;;;;;5035608;28;20299;-65
2024/01/07 11:06:12;;;;;;;4.23;2.10;;;;;;;;;;5034694;28;20046;-64
2024/01/07 11:08:38;;;;;;;;;;;;;;;;;;5042494;28;20296;-65
2024/01/07 11:11:06;;;;;;;6.27;1.83;;;;;;;;;;5035150;28;19929;-65
2024/01/07 11:13:34;;;;;;;5.07;2.47;;;;;;;;;;5042990;28;20281;-65
2024/01/07 11:16:01;;;;;;;6.17;2.23;;;;;;;;;;5040050;28;20301;-64
2024/01/07 11:18:33;;;;;;;4.33;1.70;;;;;;;;;;5040764;28;20049;-68
2024/01/07 11:21:01;;;;;;;5.10;1.60;;;;;;;;;;5043474;28;20662;-64
2024/01/07 11:23:36;;;;;;;4.20;2.00;;;;;;;;;;5038896;28;20051;-64
2024/01/07 11:26:02;;;;;;;4.60;1.73;;;;;;;;;;5034781;28;20045;-65
2024/01/07 11:28:48;;;;;;;4.03;1.57;;;;;;;;;;5036115;28;20288;-64
2024/01/07 11:31:17;;;;;;;3.07;1.80;;;;;;;;;;5040007;28;20354;-65
2024/01/07 11:33:45;;;;;;;3.43;1.50;;;;;;;;;;5043899;28;20294;-65
2024/01/07 11:36:15;;;;;;;3.00;1.53;;;;;;;;;;5037583;28;20276;-65
2024/01/07 11:38:50;;;;;;;3.67;1.30;;;;;;;;;;5037376;28;20833;-65
2024/01/07 11:41:17;;;;;;;5.73;1.50;;;;;;;;;;5042395;28;20331;-65
2024/01/07 11:43:58;;;;;;;2.27;1.13;;;;;;;;;;5036040;28;20284;-65
2024/01/07 11:46:25;;;;;;;5.83;2.30;;;;;;;;;;5035408;28;20072;-65
2024/01/07 11:48:53;;;;;;;5.63;1.60;;;;;;;;;;5036795;28;20048;-65
2024/01/07 11:51:19;;;;;;;4.93;1.53;;;;;;;;;;5037030;28;20057;-65
2024/01/07 11:53:48;;;;;;;3.43;1.33;;;;;;;;;;5036685;28;20646;-64
2024/01/07 11:56:14;;;;;;;2.77;1.53;;;;;;;;;;5036999;28;20036;-65
2024/01/07 11:58:43;;;;;;;2.47;1.23;;;;;;;;;;5041354;28;20291;-64
2024/01/07 12:01:09;;;;;;;2.37;1.30;;;;;;;;;;5040124;28;20072;-64
2024/01/07 12:03:35;;;;;;;2.93;1.43;;;;;;;;;;5041336;28;20459;-65
2024/01/07 12:06:01;;;;;;;2.90;1.40;;;;;;;;;;5036675;28;20052;-65
2024/01/07 12:08:27;;;;;;;4.83;1.70;;;;;;;;;;5039956;28;20450;-65
2024/01/07 12:10:53;;;;;;;13.30;6.87;;;;;;;;;;5038410;28;20053;-65
2024/01/07 12:13:19;;;;;;;48.70;20.70;;;;;;;;;;5035166;28;20087;-66
2024/01/07 12:15:46;;;;;;;34.90;16.20;;;;;;;;;;5034751;28;20122;-64
2024/01/07 12:18:12;;;;;;;63.60;25.70;;;;;;;;;;5033040;28;20045;-65
2024/01/07 12:20:38;;;;;;;156.03;65.87;;;;;;;;;;5028776;28;20087;-65
2024/01/07 12:23:10;;;;;;;35.10;15.40;;;;;;;;;;5029259;28;20044;-64
2024/01/07 12:25:37;;;;;;;35.23;16.83;;;;;;;;;;5025785;28;20045;-65
2024/01/07 12:28:07;;;;;;;6.53;2.50;;;;;;;;;;5028078;28;20042;-65
2024/01/07 12:30:33;;;;;;;9.80;4.93;;;;;;;;;;5028328;28;20048;-64
2024/01/07 12:32:59;;;;;;;10.40;2.30;;;;;;;;;;5026481;28;20125;-64
2024/01/07 12:35:26;;;;;;;20.50;11.60;;;;;;;;;;5029775;28;20100;-65
2024/01/07 12:37:52;;;;;;;43.27;22.03;;;;;;;;;;5028845;28;20049;-65
2024/01/07 12:40:19;;;;;;;8.33;7.50;;;;;;;;;;5029591;28;20045;-65
2024/01/07 12:42:45;;;;;;;4.73;2.37;;;;;;;;;;5028748;28;20104;-65
2024/01/07 12:45:13;;;;;;;8.27;5.57;;;;;;;;;;5029351;28;20041;-65
2024/01/07 12:47:40;;;;;;;5.60;2.90;;;;;;;;;;5029325;28;20049;-65
2024/01/07 12:50:08;;;;;;;3.03;1.57;;;;;;;;;;5029101;28;20129;-65
2024/01/07 12:52:35;;;;;;;4.20;2.60;;;;;;;;;;5026448;28;20492;-65
2024/01/07 12:55:01;;;;;;;4.77;1.60;;;;;;;;;;5029913;28;20100;-65
2024/01/07 12:57:28;;;;;;;4.00;1.80;;;;;;;;;;5027393;28;20100;-65
2024/01/07 12:59:54;;;;;;;3.27;1.80;;;;;;;;;;5027374;28;20067;-65
2024/01/07 13:02:20;;;;;;;4.00;1.50;;;;;;;;;;5028031;28;20116;-65
2024/01/07 13:04:46;;;;;;;2.50;1.60;;;;;;;;;;5029258;28;20539;-65
2024/01/07 13:07:13;;;;;;;8.33;3.67;;;;;;;;;;5028022;28;20128;-65
2024/01/07 13:09:39;;;;;;;4.73;1.53;;;;;;;;;;5028530;28;20084;-65
2024/01/07 13:12:05;;;;;;;4.57;2.37;;;;;;;;;;5028745;28;20037;-65
2024/01/07 13:14:31;;;;;;;4.03;2.50;;;;;;;;;;5028913;28;20048;-66
2024/01/07 13:16:58;;;;;;;5.80;1.97;;;;;;;;;;5029495;28;20048;-65
2024/01/07 13:19:26;;;;;;;4.20;2.07;;;;;;;;;;5028949;28;20049;-64
2024/01/07 13:21:55;;;;;;;18.40;11.70;;;;;;;;;;5028243;28;20496;-64
2024/01/07 13:24:21;;;;;;;5.57;2.70;;;;;;;;;;5026192;28;20554;-65
2024/01/07 13:26:48;;;;;;;4.27;2.33;;;;;;;;;;5023594;28;20048;-65
2024/01/07 13:29:14;;;;;;;5.60;4.67;;;;;;;;;;5025010;28;20053;-65
2024/01/07 13:31:40;;;;;;;5.57;3.13;;;;;;;;;;5026623;28;20049;-65
2024/01/07 13:34:06;;;;;;;7.87;3.17;;;;;;;;;;5026629;28;20132;-65
2024/01/07 13:36:32;;;;;;;10.30;5.87;;;;;;;;;;5026752;28;20183;-65
2024/01/07 13:38:58;;;;;;;9.50;3.33;;;;;;;;;;5027757;28;20044;-65
2024/01/07 13:41:28;;;;;;;7.63;3.23;;;;;;;;;;5028707;28;20483;-65
2024/01/07 13:43:55;;;;;;;6.87;3.50;;;;;;;;;;5028661;28;20427;-65
2024/01/07 13:46:23;;;;;;;7.83;3.70;;;;;;;;;;5028410;28;20138;-65
2024/01/07 13:48:49;;;;;;;8.23;4.03;;;;;;;;;;5028555;28;20049;-65
2024/01/07 13:51:15;;;;;;;16.57;11.77;;;;;;;;;;5028272;28;20077;-65
2024/01/07 13:53:41;;;;;;;10.43;6.07;;;;;;;;;;5028588;28;20567;-65
2024/01/07 13:56:07;;;;;;;4.93;2.87;;;;;;;;;;5027755;28;20569;-65
2024/01/07 13:58:33;;;;;;;6.83;2.63;;;;;;;;;;5028541;28;20046;-65
2024/01/07 14:00:59;;;;;;;6.10;2.80;;;;;;;;;;5028315;28;20046;-65
2024/01/07 14:03:25;;;;;;;4.47;2.73;;;;;;;;;;5027937;28;20049;-65
2024/01/07 14:05:51;;;;;;;9.77;5.60;;;;;;;;;;5028530;28;20141;-65
2024/01/07 14:08:17;;;;;;;5.20;3.30;;;;;;;;;;5028280;28;20128;-65
2024/01/07 14:10:43;;;;;;;5.07;2.93;;;;;;;;;;5028246;28;20052;-65
2024/01/07 14:13:09;;;;;;;6.80;4.13;;;;;;;;;;5027929;28;20129;-65
2024/01/07 14:15:35;;;;;;;5.93;3.70;;;;;;;;;;5028361;28;20046;-65
2024/01/07 14:18:01;;;;;;;8.77;4.47;;;;;;;;;;5028165;28;20041;-64
2024/01/07 14:20:28;;;;;;;5.77;3.73;;;;;;;;;;5028582;28;20045;-65
2024/01/07 14:22:54;;;;;;;6.00;2.87;;;;;;;;;;5028224;28;20530;-65
2024/01/07 14:25:20;;;;;;;7.03;3.53;;;;;;;;;;5027521;28;20107;-64
2024/01/07 14:27:47;;;;;;;8.17;4.17;;;;;;;;;;5028330;28;20091;-64